createdAt,value
2022-10-03T00:02:24.475Z,10.44
2022-10-03T00:05:23.772Z,10.42
2022-10-03T00:08:14.289Z,10.41
2022-10-03T00:11:25.612Z,10.53
2022-10-03T00:14:14.312Z,10.62
2022-10-03T00:17:26.938Z,10.69
2022-10-03T00:20:02.536Z,10.76
2022-10-03T00:22:43.887Z,10.70
2022-10-03T00:25:50.075Z,10.73
2022-10-03T00:29:16.838Z,10.85
2022-10-03T00:32:24.732Z,10.92
2022-10-03T00:34:54.486Z,11.12
2022-10-03T00:37:44.784Z,11.09
2022-10-03T00:40:47.061Z,11.15
2022-10-03T00:43:41.549Z,11.05
2022-10-03T00:46:30.379Z,11.15
2022-10-03T00:49:37.804Z,11.18
2022-10-03T00:52:33.836Z,11.05
2022-10-03T00:55:19.257Z,10.97
2022-10-03T00:58:26.120Z,11.24
2022-10-03T01:01:05.365Z,11.09
2022-10-03T01:03:58.954Z,11.19
2022-10-03T01:06:36.789Z,11.21
2022-10-03T01:09:31.140Z,11.37
2022-10-03T01:12:21.251Z,11.19
2022-10-03T01:15:24.683Z,11.30
2022-10-03T01:18:13.405Z,11.35
2022-10-03T01:21:12.449Z,11.33
2022-10-03T01:24:04.987Z,11.15
2022-10-03T01:26:43.866Z,11.20
2022-10-03T01:29:41.711Z,11.36
2022-10-03T01:32:25.988Z,11.24
2022-10-03T01:35:11.075Z,11.41
2022-10-03T01:38:08.918Z,11.47
2022-10-03T01:41:17.559Z,11.50
2022-10-03T01:44:13.359Z,11.43
2022-10-03T01:46:48.414Z,11.63
2022-10-03T01:49:38.486Z,11.55
2022-10-03T01:52:21.318Z,11.59
2022-10-03T01:55:15.883Z,11.72
2022-10-03T01:58:17.555Z,11.66
2022-10-03T02:01:00.654Z,11.62
2022-10-03T02:03:52.201Z,11.70
2022-10-03T02:07:05.791Z,11.68
2022-10-03T02:10:09.758Z,11.73
2022-10-03T02:13:06.095Z,11.69
2022-10-03T02:16:06.099Z,11.71
2022-10-03T02:19:09.297Z,11.69
2022-10-03T02:21:54.589Z,11.69
2022-10-03T02:25:06.155Z,11.74
2022-10-03T02:28:35.182Z,11.81
2022-10-03T02:31:23.469Z,11.72
2022-10-03T02:34:16.054Z,11.87
2022-10-03T02:36:48.867Z,11.91
2022-10-03T02:39:23.192Z,11.87
2022-10-03T02:42:25.214Z,11.83
2022-10-03T02:45:13.238Z,11.90
2022-10-03T02:48:33.575Z,11.85
2022-10-03T02:52:08.633Z,11.86
2022-10-03T02:54:57.231Z,11.85
2022-10-03T02:57:51.883Z,11.98
2022-10-03T03:00:31.659Z,12.12
2022-10-03T03:03:34.976Z,11.96
2022-10-03T03:06:33.718Z,12.05
2022-10-03T03:09:18.896Z,12.10
2022-10-03T03:12:14.991Z,12.04
2022-10-03T03:14:54.328Z,11.88
2022-10-03T03:17:36.803Z,12.16
2022-10-03T03:20:14.823Z,12.06
2022-10-03T03:22:56.024Z,12.14
2022-10-03T03:26:16.011Z,12.02
2022-10-03T03:28:57.991Z,11.97
2022-10-03T03:31:56.551Z,12.10
2022-10-03T03:34:44.219Z,12.10
2022-10-03T03:38:01.283Z,12.10
2022-10-03T03:40:59.090Z,12.26
2022-10-03T03:43:55.643Z,12.11
2022-10-03T03:47:09.328Z,12.04
2022-10-03T03:50:07.177Z,12.21
2022-10-03T03:53:18.218Z,12.01
2022-10-03T03:56:06.310Z,12.12
2022-10-03T03:59:03.337Z,12.28
2022-10-03T04:01:38.840Z,12.28
2022-10-03T04:04:23.308Z,12.31
2022-10-03T04:07:27.867Z,12.24
2022-10-03T04:10:56.687Z,12.45
2022-10-03T04:13:37.117Z,12.24
2022-10-03T04:16:54.883Z,12.29
2022-10-03T04:20:11.503Z,12.25
2022-10-03T04:23:02.136Z,12.27
2022-10-03T04:25:58.222Z,12.28
2022-10-03T04:28:48.427Z,12.27
2022-10-03T04:32:01.836Z,12.40
2022-10-03T04:35:02.557Z,12.41
2022-10-03T04:37:52.713Z,12.47
2022-10-03T04:40:27.454Z,12.47
2022-10-03T04:43:40.500Z,12.47
2022-10-03T04:46:53.048Z,12.44
2022-10-03T04:49:46.283Z,12.48
2022-10-03T04:52:42.037Z,12.37
2022-10-03T04:55:47.938Z,12.38
2022-10-03T04:59:27.557Z,12.26
2022-10-03T05:02:02.479Z,12.29
2022-10-03T05:04:31.152Z,12.36
2022-10-03T05:07:42.111Z,12.35
2022-10-03T05:10:40.225Z,12.27
2022-10-03T05:13:51.570Z,12.25
2022-10-03T05:16:32.058Z,12.42
2022-10-03T05:19:41.715Z,12.34
2022-10-03T05:22:23.922Z,12.43
2022-10-03T05:25:18.771Z,12.40
2022-10-03T05:28:11.600Z,12.30
2022-10-03T05:31:29.291Z,12.19
2022-10-03T05:34:26.576Z,12.23
2022-10-03T05:37:25.327Z,12.36
2022-10-03T05:40:00.019Z,12.34
2022-10-03T05:42:51.403Z,12.35
2022-10-03T05:45:52.367Z,12.25
2022-10-03T05:49:10.727Z,12.48
2022-10-03T05:52:16.445Z,12.51
2022-10-03T05:55:19.123Z,12.36
2022-10-03T05:58:23.958Z,12.47
2022-10-03T06:01:10.085Z,12.35
2022-10-03T06:04:22.770Z,12.35
2022-10-03T06:07:20.802Z,12.44
2022-10-03T06:09:53.720Z,12.41
2022-10-03T06:12:32.071Z,12.49
2022-10-03T06:15:27.076Z,12.58
2022-10-03T06:18:16.663Z,12.70
2022-10-03T06:21:32.889Z,13.29
2022-10-03T06:24:39.512Z,13.30
2022-10-03T06:27:38.850Z,13.18
2022-10-03T06:30:37.240Z,13.34
2022-10-03T06:33:26.218Z,13.35
2022-10-03T06:36:08.333Z,13.30
2022-10-03T06:39:09.601Z,13.30
2022-10-03T06:42:07.453Z,13.32
2022-10-03T06:45:11.544Z,13.30
2022-10-03T06:48:24.663Z,13.52
2022-10-03T06:51:30.384Z,13.70
2022-10-03T06:54:30.853Z,14.74
2022-10-03T06:57:04.663Z,16.07
2022-10-03T06:59:58.617Z,17.06
2022-10-03T07:02:49.058Z,17.53
2022-10-03T07:05:46.518Z,18.27
2022-10-03T07:09:00.726Z,18.42
2022-10-03T07:12:21.164Z,18.46
2022-10-03T07:15:50.088Z,18.66
2022-10-03T07:18:35.637Z,19.07
2022-10-03T07:21:33.750Z,19.47
2022-10-03T07:24:34.627Z,19.55
2022-10-03T07:27:40.732Z,19.69
2022-10-03T07:30:27.007Z,20.04
2022-10-03T07:33:06.147Z,19.10
2022-10-03T07:36:09.008Z,19.15
2022-10-03T07:39:23.299Z,18.82
2022-10-03T07:42:17.462Z,19.09
2022-10-03T07:45:23.301Z,20.05
2022-10-03T07:48:33.990Z,20.56
2022-10-03T07:51:10.878Z,21.31
2022-10-03T07:54:24.694Z,19.86
2022-10-03T07:57:21.952Z,19.53
2022-10-03T08:00:13.671Z,19.24
2022-10-03T08:03:14.974Z,18.84
2022-10-03T08:06:15.975Z,18.66
2022-10-03T08:09:00.784Z,19.19
2022-10-03T08:11:46.488Z,19.35
2022-10-03T08:15:05.349Z,18.96
2022-10-03T08:17:47.621Z,19.20
2022-10-03T08:20:26.277Z,19.00
2022-10-03T08:23:29.798Z,20.36
2022-10-03T08:26:34.068Z,20.66
2022-10-03T08:29:45.826Z,20.00
2022-10-03T08:33:19.755Z,19.44
2022-10-03T08:35:58.407Z,19.75
2022-10-03T08:38:56.677Z,19.69
2022-10-03T08:42:14.964Z,18.87
2022-10-03T08:45:27.810Z,18.67
2022-10-03T08:48:20.108Z,18.48
2022-10-03T08:51:31.622Z,18.71
2022-10-03T08:54:03.009Z,18.15
2022-10-03T09:00:41.863Z,18.25
2022-10-03T09:03:57.600Z,18.32
2022-10-03T09:07:16.143Z,19.28
2022-10-03T09:10:07.719Z,20.07
2022-10-03T09:13:20.714Z,19.43
2022-10-03T09:16:45.550Z,19.13
2022-10-03T09:20:09.300Z,19.31
2022-10-03T09:23:03.765Z,18.62
2022-10-03T09:26:27.828Z,18.71
2022-10-03T09:29:35.234Z,20.01
2022-10-03T09:32:30.029Z,19.59
2022-10-03T09:35:34.826Z,19.69
2022-10-03T09:38:23.166Z,19.20
2022-10-03T09:41:32.536Z,18.50
2022-10-03T09:44:40.089Z,18.06
2022-10-03T09:47:49.397Z,17.62
2022-10-03T09:50:52.048Z,17.60
2022-10-03T09:53:44.692Z,17.05
2022-10-03T09:56:40.180Z,17.08
2022-10-03T10:00:08.687Z,17.03
2022-10-03T10:03:21.890Z,17.58
2022-10-03T10:06:01.318Z,17.80
2022-10-03T10:09:10.111Z,18.03
2022-10-03T10:12:23.886Z,17.35
2022-10-03T10:15:26.630Z,17.07
2022-10-03T10:18:15.863Z,17.10
2022-10-03T10:21:06.638Z,16.80
2022-10-03T10:24:21.796Z,17.24
2022-10-03T10:27:29.940Z,16.94
2022-10-03T10:30:39.178Z,17.14
2022-10-03T10:33:24.541Z,17.40
2022-10-03T10:36:38.902Z,17.20
2022-10-03T10:39:41.855Z,17.17
2022-10-03T10:42:30.572Z,17.11
2022-10-03T10:45:53.803Z,16.97
2022-10-03T10:48:35.702Z,16.98
2022-10-03T10:51:53.021Z,17.59
2022-10-03T10:55:06.969Z,18.28
2022-10-03T10:58:17.912Z,19.05
2022-10-03T11:01:09.324Z,18.75
2022-10-03T11:04:20.184Z,18.36
2022-10-03T11:07:21.700Z,18.58
2022-10-03T11:10:01.766Z,18.33
2022-10-03T11:12:48.059Z,18.31
2022-10-03T11:16:04.758Z,18.34
2022-10-03T11:19:03.929Z,18.27
2022-10-03T11:22:00.138Z,17.89
2022-10-03T11:25:07.850Z,17.48
2022-10-03T11:28:33.034Z,19.03
2022-10-03T11:32:15.058Z,20.93
2022-10-03T11:35:25.890Z,20.97
2022-10-03T11:38:14.184Z,22.00
2022-10-03T11:41:01.144Z,22.28
2022-10-03T11:44:11.648Z,23.24
2022-10-03T11:47:18.684Z,23.74
2022-10-03T11:50:14.478Z,24.49
2022-10-03T11:52:59.771Z,25.14
2022-10-03T11:55:42.208Z,24.81
2022-10-03T11:58:32.318Z,24.61
2022-10-03T12:01:51.329Z,24.33
2022-10-03T12:05:04.073Z,24.26
2022-10-03T12:07:58.440Z,24.01
2022-10-03T12:10:46.029Z,23.02
2022-10-03T12:13:21.936Z,21.21
2022-10-03T12:15:54.475Z,19.68
2022-10-03T12:18:43.055Z,18.21
2022-10-03T12:21:54.311Z,17.44
2022-10-03T12:24:33.177Z,17.43
2022-10-03T12:27:34.308Z,16.49
2022-10-03T12:30:14.499Z,16.37
2022-10-03T12:33:28.758Z,15.84
2022-10-03T12:36:23.364Z,15.88
2022-10-03T12:39:45.467Z,15.78
2022-10-03T12:42:41.527Z,15.44
2022-10-03T12:45:48.316Z,15.51
2022-10-03T12:48:24.312Z,15.65
2022-10-03T12:51:23.949Z,15.78
2022-10-03T12:54:27.586Z,15.68
2022-10-03T12:57:45.145Z,15.83
2022-10-03T13:00:24.349Z,16.14
2022-10-03T13:03:09.396Z,16.25
2022-10-03T13:06:02.816Z,16.43
2022-10-03T13:08:56.288Z,16.95
2022-10-03T13:11:57.205Z,16.87
2022-10-03T13:14:50.177Z,17.30
2022-10-03T13:17:51.741Z,17.45
2022-10-03T13:20:37.188Z,17.07
2022-10-03T13:23:42.894Z,16.78
2022-10-03T13:26:24.584Z,16.71
2022-10-03T13:32:32.983Z,16.93
2022-10-03T13:35:33.713Z,16.70
2022-10-03T13:38:13.821Z,16.27
2022-10-03T13:40:56.737Z,15.89
2022-10-03T13:43:36.335Z,16.11
2022-10-03T13:46:13.317Z,16.43
2022-10-03T13:48:47.643Z,16.60
2022-10-03T13:51:50.566Z,16.48
2022-10-03T13:55:11.635Z,16.46
2022-10-03T13:58:14.333Z,16.44
2022-10-03T14:01:13.952Z,16.46
2022-10-03T14:04:27.274Z,16.61
2022-10-03T14:07:29.532Z,16.98
2022-10-03T14:11:04.520Z,17.27
2022-10-03T14:13:36.653Z,17.47
2022-10-03T14:16:30.408Z,17.29
2022-10-03T14:19:17.128Z,17.00
2022-10-03T14:22:02.768Z,16.49
2022-10-03T14:25:05.429Z,16.17
2022-10-03T14:27:35.371Z,15.82
2022-10-03T14:30:18.620Z,15.64
2022-10-03T14:33:31.595Z,15.61
2022-10-03T14:36:44.133Z,15.38
2022-10-03T14:39:41.262Z,15.50
2022-10-03T14:42:44.784Z,16.05
2022-10-03T14:45:21.634Z,16.16
2022-10-03T14:47:53.917Z,15.88
2022-10-03T14:50:30.913Z,16.09
2022-10-03T14:53:34.030Z,16.06
2022-10-03T14:56:12.868Z,15.95
2022-10-03T14:58:53.953Z,15.85
2022-10-03T15:01:29.026Z,15.95
2022-10-03T15:04:32.405Z,15.68
2022-10-03T15:07:15.837Z,15.49
2022-10-03T15:09:50.420Z,15.56
2022-10-03T15:12:31.285Z,15.47
2022-10-03T15:15:07.412Z,15.33
2022-10-03T15:17:49.797Z,15.18
2022-10-03T15:20:27.041Z,15.13
2022-10-03T15:22:58.617Z,15.16
2022-10-03T15:25:40.094Z,15.08
2022-10-03T15:28:21.399Z,15.00
2022-10-03T15:30:53.574Z,15.14
2022-10-03T15:33:33.998Z,15.09
2022-10-03T15:36:26.956Z,14.92
2022-10-03T15:39:02.327Z,14.90
2022-10-03T15:41:50.523Z,14.98
2022-10-03T15:44:33.950Z,14.83
2022-10-03T15:47:27.325Z,15.11
2022-10-03T15:50:22.413Z,15.06
2022-10-03T15:53:35.589Z,15.07
2022-10-03T15:56:24.138Z,14.87
2022-10-03T15:59:01.449Z,14.78
2022-10-03T16:01:40.046Z,14.86
2022-10-03T16:04:35.607Z,14.90
2022-10-03T16:07:55.078Z,14.77
2022-10-03T16:10:30.231Z,14.51
2022-10-03T16:13:10.421Z,14.58
2022-10-03T16:16:23.904Z,14.38
2022-10-03T16:19:22.436Z,14.29
2022-10-03T16:22:13.487Z,14.24
2022-10-03T16:25:05.756Z,14.08
2022-10-03T16:27:55.826Z,14.10
2022-10-03T16:30:30.059Z,14.01
2022-10-03T16:33:16.362Z,14.10
2022-10-03T16:36:16.790Z,14.22
2022-10-03T16:38:54.286Z,14.24
2022-10-03T16:41:31.977Z,14.27
2022-10-03T16:44:23.275Z,14.41
2022-10-03T16:46:59.814Z,14.49
2022-10-03T16:49:53.532Z,14.46
2022-10-03T16:52:35.727Z,14.40
2022-10-03T16:55:26.518Z,14.34
2022-10-03T16:58:00.088Z,14.38
2022-10-03T17:01:09.029Z,14.36
2022-10-03T17:04:17.690Z,14.18
2022-10-03T17:06:55.833Z,13.90
2022-10-03T17:09:37.279Z,13.79
2022-10-03T17:12:13.681Z,13.85
2022-10-03T17:14:44.670Z,13.86
2022-10-03T17:17:31.801Z,13.84
2022-10-03T17:20:14.785Z,13.76
2022-10-03T17:22:45.870Z,13.73
2022-10-03T17:25:19.104Z,13.54
2022-10-03T17:27:52.539Z,13.63
2022-10-03T17:30:43.571Z,13.68
2022-10-03T17:33:25.979Z,13.55
2022-10-03T17:36:15.431Z,13.27
2022-10-03T17:39:10.556Z,13.24
2022-10-03T17:42:01.878Z,13.14
2022-10-03T17:44:52.808Z,12.80
2022-10-03T17:47:57.063Z,13.11
2022-10-03T17:50:32.047Z,13.03
2022-10-03T17:53:00.733Z,13.16
2022-10-03T17:55:41.879Z,12.93
2022-10-03T17:58:19.727Z,12.96
2022-10-03T18:00:46.823Z,12.62
2022-10-03T18:03:30.934Z,12.72
2022-10-03T18:06:31.874Z,12.46
2022-10-03T18:09:07.437Z,12.20
2022-10-03T18:11:38.010Z,12.41
2022-10-03T18:14:20.738Z,12.28
2022-10-03T18:17:09.300Z,12.12
2022-10-03T18:19:51.386Z,12.21
2022-10-03T18:22:40.869Z,12.21
2022-10-03T18:26:19.665Z,12.06
2022-10-03T18:29:23.676Z,12.09
2022-10-03T18:32:12.872Z,12.24
2022-10-03T18:34:55.578Z,12.27
2022-10-03T18:37:28.692Z,12.26
2022-10-03T18:40:48.518Z,12.31
2022-10-03T18:43:37.035Z,12.40
2022-10-03T18:46:22.787Z,12.32
2022-10-03T18:49:31.479Z,12.30
2022-10-03T18:52:24.110Z,12.49
2022-10-03T18:55:05.267Z,12.51
2022-10-03T18:57:41.350Z,12.51
2022-10-03T19:00:21.511Z,12.56
2022-10-03T19:03:20.029Z,12.63
2022-10-03T19:05:58.511Z,12.64
2022-10-03T19:08:59.363Z,12.84
2022-10-03T19:11:42.312Z,12.78
2022-10-03T19:14:29.241Z,12.61
2022-10-03T19:17:11.646Z,12.86
2022-10-03T19:20:12.231Z,12.83
2022-10-03T19:22:43.662Z,12.77
2022-10-03T19:25:23.712Z,12.89
2022-10-03T19:28:08.791Z,12.93
2022-10-03T19:30:37.353Z,12.79
2022-10-03T19:33:25.892Z,12.87
2022-10-03T19:36:03.463Z,12.88
2022-10-03T19:38:40.184Z,12.85
2022-10-03T19:41:26.513Z,12.77
2022-10-03T19:43:57.215Z,12.87
2022-10-03T19:47:05.518Z,12.83
2022-10-03T19:50:02.040Z,12.69
2022-10-03T19:52:41.848Z,12.77
2022-10-03T19:55:17.589Z,12.80
2022-10-03T19:57:58.984Z,12.68
2022-10-03T20:00:39.470Z,12.66
2022-10-03T20:03:25.446Z,12.66
2022-10-03T20:06:26.869Z,12.88
2022-10-03T20:09:08.572Z,12.65
2022-10-03T20:11:56.978Z,12.50
2022-10-03T20:14:35.978Z,12.54
2022-10-03T20:17:25.385Z,12.54
2022-10-03T20:20:01.707Z,12.37
2022-10-03T20:22:36.934Z,12.50
2022-10-03T20:25:21.641Z,12.49
2022-10-03T20:27:55.979Z,12.50
2022-10-03T20:30:46.155Z,12.43
2022-10-03T20:33:27.639Z,12.53
2022-10-03T20:36:18.056Z,12.54
2022-10-03T20:39:04.603Z,12.38
2022-10-03T20:42:05.518Z,12.36
2022-10-03T20:45:03.877Z,12.23
2022-10-03T20:48:06.359Z,12.29
2022-10-03T20:50:49.689Z,12.26
2022-10-03T20:53:25.353Z,12.32
2022-10-03T20:55:58.095Z,12.23
2022-10-03T20:58:30.355Z,12.11
2022-10-03T21:01:09.977Z,12.32
2022-10-03T21:04:24.271Z,12.40
2022-10-03T21:07:06.364Z,12.26
2022-10-03T21:09:50.613Z,12.34
2022-10-03T21:12:28.352Z,12.30
2022-10-03T21:15:17.495Z,12.29
2022-10-03T21:17:46.970Z,12.25
2022-10-03T21:20:32.253Z,12.21
2022-10-03T21:23:24.012Z,12.23
2022-10-03T21:25:58.967Z,12.23
2022-10-03T21:28:36.324Z,12.27
2022-10-03T21:31:22.149Z,12.16
2022-10-03T21:34:15.924Z,12.23
2022-10-03T21:36:56.123Z,12.20
2022-10-03T21:39:56.106Z,12.25
2022-10-03T21:42:27.614Z,12.21
2022-10-03T21:44:54.711Z,12.19
2022-10-03T21:47:46.543Z,12.02
2022-10-03T21:50:31.942Z,12.10
2022-10-03T21:53:51.797Z,12.23
2022-10-03T21:56:56.098Z,12.28
2022-10-03T21:59:57.553Z,12.21
2022-10-03T22:02:55.942Z,12.21
2022-10-03T22:05:40.669Z,12.15
2022-10-03T22:08:40.626Z,12.19
2022-10-03T22:11:14.751Z,12.00
2022-10-03T22:13:55.194Z,11.93
2022-10-03T22:16:57.085Z,11.98
2022-10-03T22:19:59.211Z,11.90
2022-10-03T22:22:36.483Z,11.82
2022-10-03T22:25:39.452Z,11.85
2022-10-03T22:29:07.284Z,11.79
2022-10-03T22:31:40.514Z,11.79
2022-10-03T22:34:13.570Z,11.73
2022-10-03T22:36:41.709Z,11.78
2022-10-03T22:39:12.814Z,11.77
2022-10-03T22:41:44.250Z,11.96
2022-10-03T22:44:15.179Z,11.78
2022-10-03T22:46:50.253Z,11.76
2022-10-03T22:49:25.744Z,11.89
2022-10-03T22:51:57.152Z,11.86
2022-10-03T22:54:35.089Z,12.11
2022-10-03T22:57:12.269Z,12.14
2022-10-03T22:59:49.793Z,12.32
2022-10-03T23:02:20.114Z,12.44
2022-10-03T23:05:01.002Z,12.46
2022-10-03T23:08:13.273Z,12.62
2022-10-03T23:10:55.027Z,12.64
2022-10-03T23:13:41.063Z,12.45
2022-10-03T23:16:28.794Z,12.41
2022-10-03T23:19:44.391Z,12.49
2022-10-03T23:22:18.358Z,12.62
2022-10-03T23:25:06.079Z,12.45
2022-10-03T23:28:19.869Z,12.44
2022-10-03T23:30:52.098Z,12.44
2022-10-03T23:33:33.677Z,12.58
2022-10-03T23:36:30.397Z,12.67
2022-10-03T23:39:01.620Z,12.68
2022-10-03T23:41:34.508Z,12.72
2022-10-03T23:44:02.638Z,12.84
2022-10-03T23:46:31.840Z,12.74
2022-10-03T23:49:02.608Z,12.73
2022-10-03T23:51:35.682Z,12.60
2022-10-03T23:54:08.590Z,12.85
2022-10-03T23:56:44.552Z,12.91
2022-10-03T23:59:14.718Z,13.00
